Time;durP1;ratioP1;P1;durP2;ratioP2;P2;SDS_P1;SDS_P2;PMS_P1;PMS_P2;Temp;Humidity;BMP_temperature;BMP_pressure;BME280_temperature;BME280_humidity;BME280_pressure;Samples;Min_cycle;Max_cycle;Signal;HPM_P1;HPM_P2
2021/11/04 00:00:38;;;;;;;15.73;10.23;;;;;;;4.13;99.06;99825.94;5089324;28;20032;-73
2021/11/04 00:03:04;;;;;;;22.40;10.68;;;;;;;4.12;99.14;99825.09;5077087;28;20036;-73
2021/11/04 00:05:29;;;;;;;13.95;10.27;;;;;;;4.13;99.03;99826.75;5078668;28;20040;-73
2021/11/04 00:07:58;;;;;;;15.13;10.65;;;;;;;4.14;99.06;99828.41;5081896;28;20111;-73
2021/11/04 00:10:24;;;;;;;17.13;11.18;;;;;;;4.13;99.04;99826.75;5077400;28;20103;-73
2021/11/04 00:12:50;;;;;;;20.13;11.38;;;;;;;4.12;98.98;99825.09;5090288;28;20059;-73
2021/11/04 00:15:15;;;;;;;16.42;10.32;;;;;;;4.13;98.94;99829.50;5088667;28;20035;-73
2021/11/04 00:17:41;;;;;;;18.42;10.57;;;;;;;4.14;98.79;99831.16;5074594;28;20029;-73
2021/11/04 00:20:07;;;;;;;16.15;10.85;;;;;;;4.14;98.92;99825.66;5067253;28;20036;-73
2021/11/04 00:22:33;;;;;;;17.98;10.25;;;;;;;4.13;98.90;99823.19;5077277;28;20063;-73
2021/11/04 00:24:59;;;;;;;14.65;9.73;;;;;;;4.13;99.05;99831.44;5078221;28;20062;-73
2021/11/04 00:27:24;;;;;;;15.50;9.80;;;;;;;4.13;99.32;99832.25;5083915;28;20432;-73
2021/11/04 00:29:50;;;;;;;12.63;9.25;;;;;;;4.13;99.20;99823.19;5077020;28;20094;-73
2021/11/04 00:32:15;;;;;;;15.07;9.85;;;;;;;4.11;99.18;99828.94;5082927;28;20035;-73
2021/11/04 00:34:41;;;;;;;14.38;9.45;;;;;;;4.12;99.23;99822.34;5084505;28;20093;-73
2021/11/04 00:37:06;;;;;;;15.15;9.13;;;;;;;4.15;99.11;99823.72;5076546;28;20040;-73
2021/11/04 00:39:32;;;;;;;14.18;9.20;;;;;;;4.15;99.12;99824.56;5075381;28;20032;-73
2021/11/04 00:41:57;;;;;;;13.73;9.40;;;;;;;4.15;99.35;99818.22;5080729;28;20431;-73
2021/11/04 00:44:23;;;;;;;12.13;8.70;;;;;;;4.16;99.38;99817.97;5077150;28;20061;-73
2021/11/04 00:46:48;;;;;;;13.70;9.02;;;;;;;4.17;99.67;99819.63;5080844;28;20521;-73
2021/11/04 00:49:14;;;;;;;12.82;8.50;;;;;;;4.18;99.90;99820.44;5088637;28;20081;-73
2021/11/04 00:51:39;;;;;;;12.65;8.55;;;;;;;4.18;100.00;99821.28;5074881;28;20439;-73
2021/11/04 00:54:05;;;;;;;12.25;8.52;;;;;;;4.21;99.94;99830.91;5090058;28;20029;-73
2021/11/04 00:56:30;;;;;;;10.65;8.00;;;;;;;4.22;99.93;99830.63;5075514;28;20035;-73
2021/11/04 00:58:56;;;;;;;12.20;7.72;;;;;;;4.22;99.73;99827.88;5078439;28;20049;-73
2021/11/04 01:01:22;;;;;;;11.40;7.78;;;;;;;4.23;99.80;99825.97;5076902;28;20032;-73
2021/11/04 01:03:47;;;;;;;11.10;7.30;;;;;;;4.24;99.62;99822.94;5072972;28;20028;-73
2021/11/04 01:06:13;;;;;;;10.23;7.82;;;;;;;4.23;99.80;99826.81;5074853;28;20123;-73
2021/11/04 01:08:39;;;;;;;12.60;8.00;;;;;;;4.23;99.80;99832.31;5080343;28;20040;-73
2021/11/04 01:11:04;;;;;;;10.30;7.28;;;;;;;4.23;99.75;99831.47;5076646;28;20055;-73
2021/11/04 01:13:30;;;;;;;10.63;7.45;;;;;;;4.24;99.74;99833.13;5079387;28;20055;-73
2021/11/04 01:15:56;;;;;;;9.18;6.75;;;;;;;4.22;99.83;99835.31;5088989;28;20035;-73
2021/11/04 01:18:21;;;;;;;11.13;7.30;;;;;;;4.23;99.56;99837.81;5075670;28;20032;-73
2021/11/04 01:20:47;;;;;;;9.35;6.78;;;;;;;4.23;99.73;99837.81;5076705;28;20040;-73
2021/11/04 01:23:12;;;;;;;11.15;7.20;;;;;;;4.21;99.69;99840.00;5075681;28;20437;-73
2021/11/04 01:25:38;;;;;;;10.40;6.65;;;;;;;4.21;99.72;99840.00;5076292;28;20028;-73
2021/11/04 01:28:08;;;;;;;9.20;6.85;;;;;;;4.20;99.87;99846.56;5082854;28;20055;-73
2021/11/04 01:30:34;;;;;;;8.07;6.40;;;;;;;4.20;100.00;99841.06;5086481;28;20392;-73
2021/11/04 01:32:59;;;;;;;11.48;6.80;;;;;;;4.21;100.00;99840.00;5077592;28;20504;-73
2021/11/04 01:35:25;;;;;;;10.95;7.43;;;;;;;4.22;100.00;99844.38;5091895;28;20028;-73
2021/11/04 01:37:50;;;;;;;10.13;6.63;;;;;;;4.22;100.00;99844.38;5074914;28;20496;-73
2021/11/04 01:40:16;;;;;;;9.40;6.65;;;;;;;4.22;100.00;99852.63;5073897;28;20036;-73
2021/11/04 01:42:41;;;;;;;10.18;7.07;;;;;;;4.22;100.00;99852.63;5075853;28;20033;-73
2021/11/04 01:45:07;;;;;;;9.88;7.20;;;;;;;4.23;100.00;99856.19;5073046;28;20032;-73
2021/11/04 01:47:33;;;;;;;11.57;7.75;;;;;;;4.23;100.00;99850.69;5075705;28;20071;-72
2021/11/04 01:49:58;;;;;;;10.90;7.97;;;;;;;4.23;100.00;99859.78;5080978;28;20020;-73
2021/11/04 01:52:24;;;;;;;9.27;7.55;;;;;;;4.28;100.00;99855.41;5076789;28;20512;-73
2021/11/04 01:54:49;;;;;;;10.35;7.20;;;;;;;4.27;100.00;99860.06;5074956;28;20025;-73
2021/11/04 01:57:15;;;;;;;12.55;7.65;;;;;;;4.28;100.00;99866.41;5074719;28;20427;-73
2021/11/04 01:59:40;;;;;;;12.05;7.32;;;;;;;4.27;100.00;99873.00;5078717;28;20477;-73
2021/11/04 02:02:10;;;;;;;11.93;7.35;;;;;;;4.31;100.00;99865.84;5072703;28;20448;-73
2021/11/04 02:04:41;;;;;;;10.15;7.32;;;;;;;4.28;100.00;99872.72;5067604;28;20028;-73
2021/11/04 02:07:09;;;;;;;11.07;8.00;;;;;;;4.30;100.00;99872.47;5074157;28;20037;-73
2021/11/04 02:09:42;;;;;;;11.10;7.47;;;;;;;4.26;100.00;99874.91;5072977;28;20028;-73
2021/11/04 02:12:11;;;;;;;13.40;7.40;;;;;;;4.25;100.00;99879.56;5076257;28;20488;-73
2021/11/04 02:14:44;;;;;;;11.48;7.95;;;;;;;4.23;100.00;99879.03;5073146;28;20032;-73
2021/11/04 02:17:09;;;;;;;12.23;7.80;;;;;;;4.22;100.00;99884.78;5057805;28;20573;-73
2021/11/04 02:19:37;;;;;;;12.75;8.27;;;;;;;4.22;100.00;99882.84;5083455;28;20040;-73
2021/11/04 02:22:04;;;;;;;9.27;7.35;;;;;;;4.21;100.00;99886.72;5075198;28;20041;-73
2021/11/04 02:24:40;;;;;;;12.50;7.63;;;;;;;4.22;100.00;99887.53;5041218;28;20033;-73
2021/11/04 02:27:06;;;;;;;11.68;7.50;;;;;;;4.25;100.00;99895.25;5071207;28;20037;-73
2021/11/04 02:29:32;;;;;;;12.20;7.53;;;;;;;4.21;100.00;99889.47;5077133;28;20040;-73
2021/11/04 02:31:57;;;;;;;11.43;7.60;;;;;;;4.19;100.00;99885.31;5076226;28;20052;-73
2021/11/04 02:34:23;;;;;;;10.43;7.20;;;;;;;4.17;100.00;99893.81;5080589;28;20515;-73
2021/11/04 02:36:49;;;;;;;11.20;7.72;;;;;;;4.14;100.00;99897.09;5059217;28;20029;-73
2021/11/04 02:39:14;;;;;;;9.68;7.75;;;;;;;4.17;100.00;99895.75;5073680;28;20044;-73
2021/11/04 02:41:40;;;;;;;9.80;6.97;;;;;;;4.14;100.00;99902.59;5061614;28;20028;-73
2021/11/04 02:44:08;;;;;;;10.93;7.95;;;;;;;4.14;100.00;99899.84;5074782;28;20040;-73
2021/11/04 02:46:35;;;;;;;12.48;7.63;;;;;;;4.15;100.00;99904.28;5081799;28;20035;-73
2021/11/04 02:49:02;;;;;;;12.05;8.02;;;;;;;4.14;100.00;99905.34;5093029;28;20040;-73
2021/11/04 02:51:27;;;;;;;12.50;8.02;;;;;;;4.13;100.00;99897.38;5082410;28;20036;-73
2021/11/04 02:53:53;;;;;;;11.82;7.85;;;;;;;4.16;100.00;99899.59;5080023;28;20696;-73
2021/11/04 02:56:18;;;;;;;10.25;7.30;;;;;;;4.19;100.00;99902.63;5078020;28;20032;-73
2021/11/04 02:58:44;;;;;;;10.02;7.43;;;;;;;4.19;100.00;99897.13;5090090;28;20472;-73
2021/11/04 03:01:09;;;;;;;11.05;7.32;;;;;;;4.19;100.00;99897.13;5085606;28;20028;-73
2021/11/04 03:03:35;;;;;;;12.15;7.50;;;;;;;4.21;100.00;99897.72;5080470;28;20031;-73
2021/11/04 03:06:00;;;;;;;11.02;6.97;;;;;;;4.22;100.00;99896.59;5076771;28;20039;-73
2021/11/04 03:08:26;;;;;;;10.95;7.05;;;;;;;4.25;100.00;99895.25;5077945;28;20047;-73
2021/11/04 03:10:55;;;;;;;10.15;7.07;;;;;;;4.26;100.00;99899.63;5080105;28;20036;-73
2021/11/04 03:13:20;;;;;;;11.25;7.60;;;;;;;4.28;100.00;99899.38;5078575;28;20029;-73
2021/11/04 03:15:50;;;;;;;12.13;7.68;;;;;;;4.29;100.00;99898.28;5084503;28;20034;-73
2021/11/04 03:18:15;;;;;;;8.35;7.07;;;;;;;4.28;100.00;99897.44;5078693;28;20501;-73
2021/11/04 03:20:41;;;;;;;10.93;7.00;;;;;;;4.30;100.00;99902.69;5087912;28;20082;-73
2021/11/04 03:23:06;;;;;;;10.48;7.53;;;;;;;4.27;100.00;99908.72;5081057;28;20151;-73
2021/11/04 03:25:32;;;;;;;12.77;7.07;;;;;;;4.30;100.00;99903.53;5093607;28;20088;-73
2021/11/04 03:27:57;;;;;;;9.50;7.13;;;;;;;4.28;100.00;99905.69;5083170;28;20093;-73
2021/11/04 03:30:24;;;;;;;9.80;6.93;;;;;;;4.29;100.00;99906.53;5065535;28;20151;-73
2021/11/04 03:32:49;;;;;;;8.38;6.72;;;;;;;4.27;100.00;99912.31;5078063;28;20050;-73
2021/11/04 03:35:15;;;;;;;11.25;7.15;;;;;;;4.31;100.00;99912.59;5076296;28;20513;-73
2021/11/04 03:37:43;;;;;;;10.18;6.47;;;;;;;4.27;100.00;99915.06;5074988;28;20025;-73
2021/11/04 03:40:09;;;;;;;9.93;6.80;;;;;;;4.29;100.00;99917.53;5079638;28;20429;-73
2021/11/04 03:42:35;;;;;;;8.65;6.65;;;;;;;4.28;100.00;99921.38;5075736;28;20104;-73
2021/11/04 03:45:01;;;;;;;9.48;6.70;;;;;;;4.27;100.00;99919.72;5080699;28;20033;-73
2021/11/04 03:47:29;;;;;;;9.82;6.75;;;;;;;4.22;100.00;99921.34;5077499;28;20478;-73
2021/11/04 03:49:54;;;;;;;8.23;6.60;;;;;;;4.23;100.00;99922.16;5077912;28;20063;-73
2021/11/04 03:52:19;;;;;;;8.45;6.40;;;;;;;4.27;100.00;99927.97;5062038;28;20043;-73
2021/11/04 03:54:45;;;;;;;8.88;6.38;;;;;;;4.22;100.00;99924.09;5074768;28;20025;-73
2021/11/04 03:57:11;;;;;;;8.73;6.50;;;;;;;4.24;100.00;99929.34;5078085;28;20076;-73
2021/11/04 03:59:36;;;;;;;8.98;5.40;;;;;;;4.22;100.00;99928.75;5079407;28;20033;-73
2021/11/04 04:02:02;;;;;;;9.60;6.32;;;;;;;4.22;100.00;99934.25;5060133;28;20033;-73
2021/11/04 04:04:27;;;;;;;9.75;6.28;;;;;;;4.19;100.00;99935.63;5057853;28;20032;-73
2021/11/04 04:06:53;;;;;;;6.95;5.90;;;;;;;4.21;100.00;99940.88;5080824;28;20062;-73
2021/11/04 04:09:19;;;;;;;8.85;6.00;;;;;;;4.20;100.00;99933.69;5083884;28;20036;-73
2021/11/04 04:11:44;;;;;;;9.20;6.03;;;;;;;4.22;100.00;99946.06;5079141;28;20064;-73
2021/11/04 04:14:10;;;;;;;7.40;5.63;;;;;;;4.24;100.00;99943.06;5078140;28;20029;-73
2021/11/04 04:16:35;;;;;;;7.00;5.35;;;;;;;4.23;100.00;99942.25;5075632;28;20025;-73
2021/11/04 04:19:01;;;;;;;8.60;5.35;;;;;;;4.24;100.00;99945.81;5076378;28;20058;-73
2021/11/04 04:21:26;;;;;;;9.02;5.35;;;;;;;4.24;100.00;99949.41;5072519;28;20035;-73
2021/11/04 04:23:52;;;;;;;7.75;5.45;;;;;;;4.21;100.00;99952.69;5083509;28;20042;-73
2021/11/04 04:26:17;;;;;;;6.82;5.50;;;;;;;4.24;100.00;99957.66;5076742;28;20044;-73
2021/11/04 04:28:43;;;;;;;9.52;5.50;;;;;;;4.21;100.00;99965.59;5077898;28;20025;-73
2021/11/04 04:31:09;;;;;;;6.15;5.00;;;;;;;4.27;100.00;99969.22;5078797;28;20028;-73
2021/11/04 04:33:34;;;;;;;6.53;4.97;;;;;;;4.27;100.00;99975.53;5073975;28;20090;-73
2021/11/04 04:36:00;;;;;;;9.27;5.82;;;;;;;4.29;100.00;99967.84;5080379;28;20099;-75
2021/11/04 04:38:26;;;;;;;7.70;5.15;;;;;;;4.30;100.00;99963.19;5041511;28;20027;-73
2021/11/04 04:40:51;;;;;;;7.60;5.53;;;;;;;4.33;100.00;99965.38;5077523;28;20080;-73
2021/11/04 04:43:17;;;;;;;6.70;5.00;;;;;;;4.32;100.00;99972.81;5075890;28;20037;-73
2021/11/04 04:45:43;;;;;;;5.93;4.70;;;;;;;4.34;100.00;99975.28;5079484;28;20063;-73
2021/11/04 04:48:10;;;;;;;5.93;4.75;;;;;;;4.32;100.00;99970.06;5082011;28;20625;-73
2021/11/04 04:50:37;;;;;;;7.82;4.90;;;;;;;4.31;100.00;99964.81;5085254;28;20064;-73
2021/11/04 04:53:02;;;;;;;6.72;4.88;;;;;;;4.31;100.00;99982.13;5082802;28;20028;-73
2021/11/04 04:55:28;;;;;;;10.13;4.57;;;;;;;4.31;100.00;99970.31;5079769;28;20058;-73
2021/11/04 04:57:53;;;;;;;8.38;4.90;;;;;;;4.29;100.00;99972.50;5080880;28;20025;-73
2021/11/04 05:00:19;;;;;;;7.72;4.65;;;;;;;4.27;100.00;99978.28;5086304;28;20024;-73
2021/11/04 05:02:45;;;;;;;6.60;4.53;;;;;;;4.25;100.00;99983.19;5078438;28;20048;-73
2021/11/04 05:05:11;;;;;;;6.75;4.07;;;;;;;4.24;100.00;99984.31;5081893;28;20028;-73
2021/11/04 05:07:37;;;;;;;5.60;4.10;;;;;;;4.23;100.00;99990.88;5084633;28;20020;-73
2021/11/04 05:10:04;;;;;;;7.03;4.65;;;;;;;4.19;100.00;99987.84;5083921;28;20040;-73
2021/11/04 05:12:29;;;;;;;6.07;4.43;;;;;;;4.18;100.00;99996.34;5081279;28;20466;-73
2021/11/04 05:14:55;;;;;;;5.72;4.18;;;;;;;4.18;100.00;99994.44;5081628;28;20036;-73
2021/11/04 05:17:20;;;;;;;7.03;3.78;;;;;;;4.15;100.00;99999.63;5061978;28;20039;-73
2021/11/04 05:19:46;;;;;;;7.72;3.75;;;;;;;4.13;100.00;99997.16;5085484;28;20416;-73
2021/11/04 05:22:11;;;;;;;4.70;3.80;;;;;;;4.10;100.00;99994.09;5076680;28;20025;-73
2021/11/04 05:24:37;;;;;;;8.13;4.10;;;;;;;4.04;100.00;99993.25;5079161;28;20040;-73
2021/11/04 05:27:04;;;;;;;6.68;4.13;;;;;;;4.03;100.00;99997.06;5052622;28;20477;-73
2021/11/04 05:29:30;;;;;;;6.13;3.95;;;;;;;4.00;100.00;99998.41;5075339;28;20040;-73
2021/11/04 05:31:57;;;;;;;5.53;3.70;;;;;;;3.99;100.00;100006.94;5075772;28;20435;-73
2021/11/04 05:34:22;;;;;;;6.85;4.05;;;;;;;3.96;100.00;100016.53;5080328;28;20024;-73
2021/11/04 05:36:48;;;;;;;5.35;4.00;;;;;;;3.94;100.00;100004.16;5075097;28;20050;-73
2021/11/04 05:39:13;;;;;;;5.68;4.18;;;;;;;3.94;100.00;100009.66;5076510;28;20497;-73
2021/11/04 05:41:39;;;;;;;7.18;4.35;;;;;;;3.92;100.00;100007.16;5082276;28;20027;-73
2021/11/04 05:44:04;;;;;;;4.85;3.92;;;;;;;3.87;100.00;100007.09;5089366;28;20036;-73
2021/11/04 05:46:30;;;;;;;5.72;4.35;;;;;;;3.95;100.00;100014.03;5078073;28;20056;-73
2021/11/04 05:48:55;;;;;;;5.60;4.47;;;;;;;3.86;100.00;100015.63;5086818;28;20037;-73
2021/11/04 05:51:21;;;;;;;6.80;3.75;;;;;;;3.81;100.00;100025.44;5074051;28;20480;-73
2021/11/04 05:53:46;;;;;;;6.80;4.10;;;;;;;3.77;100.00;100038.06;5074670;28;20021;-73
2021/11/04 05:56:12;;;;;;;5.63;4.32;;;;;;;3.74;100.00;100035.84;5083778;28;20028;-73
2021/11/04 05:58:37;;;;;;;6.70;4.43;;;;;;;3.77;100.00;100046.31;5077785;28;20037;-73
2021/11/04 06:01:04;;;;;;;6.20;4.32;;;;;;;3.74;100.00;100046.81;5074545;28;20055;-73
2021/11/04 06:03:29;;;;;;;9.02;4.80;;;;;;;3.71;100.00;100044.59;5084684;28;20092;-73
2021/11/04 06:05:55;;;;;;;5.90;4.40;;;;;;;3.70;100.00;100059.41;5088172;28;20397;-73
2021/11/04 06:08:20;;;;;;;9.18;5.25;;;;;;;3.72;100.00;100057.25;5073511;28;20029;-73
2021/11/04 06:10:46;;;;;;;9.07;5.22;;;;;;;3.70;100.00;100062.16;5075597;28;20043;-73
2021/11/04 06:13:11;;;;;;;10.95;5.82;;;;;;;3.71;100.00;100057.53;5073985;28;20032;-73
2021/11/04 06:15:37;;;;;;;10.30;5.38;;;;;;;3.71;100.00;100061.09;5075108;28;20040;-73
2021/11/04 06:18:02;;;;;;;9.30;4.90;;;;;;;3.71;100.00;100068.50;5078279;28;20036;-73
2021/11/04 06:20:29;;;;;;;6.90;4.88;;;;;;;3.72;100.00;100076.47;5073146;28;20549;-73
2021/11/04 06:22:55;;;;;;;6.10;4.63;;;;;;;3.75;100.00;100081.44;5078388;28;20089;-73
2021/11/04 06:25:20;;;;;;;7.50;4.10;;;;;;;3.75;100.00;100077.88;5075214;28;20024;-73
2021/11/04 06:27:46;;;;;;;7.90;4.40;;;;;;;3.77;100.00;100081.19;5071079;28;20040;-73
2021/11/04 06:30:13;;;;;;;8.48;4.47;;;;;;;3.75;100.00;100084.19;5059338;28;20053;-73
2021/11/04 06:32:38;;;;;;;8.00;4.28;;;;;;;3.73;100.00;100091.88;5068814;28;20059;-73
2021/11/04 06:35:05;;;;;;;8.40;4.70;;;;;;;3.74;100.00;100085.28;5059107;28;20032;-73
2021/11/04 06:37:30;;;;;;;8.07;4.78;;;;;;;3.72;100.00;100090.19;5046811;28;20083;-73
2021/11/04 06:39:56;;;;;;;8.27;4.38;;;;;;;3.71;100.00;100085.81;5068094;28;20036;-73
2021/11/04 06:42:22;;;;;;;7.15;4.45;;;;;;;3.69;100.00;100090.72;5050354;28;20025;-71
2021/11/04 06:44:48;;;;;;;9.38;4.90;;;;;;;3.67;100.00;100092.88;5058296;28;20032;-73
2021/11/04 06:47:19;;;;;;;7.85;4.68;;;;;;;3.65;100.00;100095.09;5057049;28;20037;-73
2021/11/04 06:49:45;;;;;;;10.57;5.20;;;;;;;3.63;100.00;100097.25;5057762;28;20039;-73
2021/11/04 06:52:11;;;;;;;8.40;4.82;;;;;;;3.62;100.00;100105.72;5047023;28;20397;-73
2021/11/04 06:54:37;;;;;;;8.20;4.82;;;;;;;3.62;100.00;100109.31;5056729;28;20118;-73
2021/11/04 06:57:02;;;;;;;7.82;4.82;;;;;;;3.63;100.00;100107.41;5040052;28;20035;-73
2021/11/04 06:59:29;;;;;;;9.40;5.13;;;;;;;3.59;100.00;100112.56;5039325;28;20056;-75
2021/11/04 07:01:58;;;;;;;6.53;4.65;;;;;;;3.60;100.00;100119.75;5038883;28;20029;-76
2021/11/04 07:04:35;;;;;;;10.75;4.85;;;;;;;3.61;100.00;100126.06;5038244;28;20090;-75
2021/11/04 07:07:05;;;;;;;8.02;4.85;;;;;;;3.57;100.00;100132.06;5039966;28;20044;-78
2021/11/04 07:09:32;;;;;;;6.25;5.07;;;;;;;3.55;100.00;100133.41;5033787;28;20044;-74
2021/11/04 07:11:58;;;;;;;13.10;5.40;;;;;;;3.57;100.00;100139.47;5051727;28;20036;-75
2021/11/04 07:14:28;;;;;;;8.43;5.40;;;;;;;3.58;100.00;100139.19;5037286;28;20388;-76
2021/11/04 07:16:55;;;;;;;6.30;4.80;;;;;;;3.57;100.00;100144.97;5046842;28;20021;-73
2021/11/04 07:19:22;;;;;;;8.40;5.30;;;;;;;3.55;100.00;100155.38;5040788;28;20032;-73
2021/11/04 07:21:55;;;;;;;9.20;6.10;;;;;;;3.53;100.00;100154.78;5045626;28;20226;-73
2021/11/04 07:24:26;;;;;;;11.02;7.00;;;;;;;3.52;100.00;100159.47;5037291;28;20029;-73
2021/11/04 07:26:52;;;;;;;12.50;6.55;;;;;;;3.54;100.00;100167.44;5036357;28;20041;-73
2021/11/04 07:29:20;;;;;;;13.80;7.32;;;;;;;3.52;100.00;100166.88;5057720;28;20054;-73
2021/11/04 07:31:45;;;;;;;9.13;6.18;;;;;;;3.54;100.00;100159.22;5053972;28;20048;-73
2021/11/04 07:34:12;;;;;;;11.18;5.60;;;;;;;3.56;100.00;100168.81;5057772;28;20436;-74
2021/11/04 07:36:38;;;;;;;12.70;7.25;;;;;;;3.62;100.00;100175.22;5045176;28;20029;-74
2021/11/04 07:39:04;;;;;;;8.15;6.05;;;;;;;3.60;100.00;100182.06;5060974;28;20040;-73
2021/11/04 07:41:30;;;;;;;11.15;6.78;;;;;;;3.64;100.00;100174.97;5058480;28;20033;-73
2021/11/04 07:43:59;;;;;;;13.35;7.13;;;;;;;3.65;100.00;100188.47;5060143;28;20033;-73
2021/11/04 07:46:25;;;;;;;12.15;7.18;;;;;;;3.67;100.00;100191.75;5060796;28;20033;-73
2021/11/04 07:48:51;;;;;;;14.02;6.97;;;;;;;3.75;100.00;100188.56;5059497;28;20037;-73
2021/11/04 07:51:16;;;;;;;14.70;6.75;;;;;;;3.78;100.00;100193.53;5049083;28;20040;-73
2021/11/04 07:53:42;;;;;;;14.57;6.40;;;;;;;3.81;100.00;100197.69;5059237;28;20025;-73
2021/11/04 07:56:09;;;;;;;12.65;6.05;;;;;;;3.90;100.00;100201.66;5059691;28;20056;-74
2021/11/04 07:58:35;;;;;;;12.77;6.03;;;;;;;3.95;100.00;100201.69;5060135;28;20032;-73
2021/11/04 08:01:01;;;;;;;13.40;6.70;;;;;;;4.02;100.00;100204.25;5056217;28;20021;-73
2021/11/04 08:03:26;;;;;;;9.77;5.68;;;;;;;4.09;100.00;100210.38;5063690;28;20044;-73
2021/11/04 08:05:52;;;;;;;10.90;5.90;;;;;;;4.21;100.00;100213.81;5054006;28;20109;-73
2021/11/04 08:08:18;;;;;;;11.02;6.82;;;;;;;4.30;100.00;100218.84;5061007;28;20021;-73
2021/11/04 08:10:43;;;;;;;12.82;6.88;;;;;;;4.38;100.00;100219.19;5058849;28;20051;-73
2021/11/04 08:13:13;;;;;;;12.82;6.13;;;;;;;4.48;100.00;100232.19;5040530;28;20028;-73
2021/11/04 08:15:39;;;;;;;13.45;6.80;;;;;;;4.59;100.00;100228.44;5075525;28;20034;-73
2021/11/04 08:18:06;;;;;;;13.20;6.25;;;;;;;4.72;100.00;100234.63;5042635;28;20449;-73
2021/11/04 08:20:32;;;;;;;9.52;5.75;;;;;;;4.82;100.00;100235.56;5044212;28;20025;-73
2021/11/04 08:22:57;;;;;;;9.93;6.10;;;;;;;4.96;100.00;100243.34;5070445;28;20036;-73
2021/11/04 08:25:24;;;;;;;13.95;5.72;;;;;;;5.05;100.00;100242.59;5058833;28;20033;-73
2021/11/04 08:27:49;;;;;;;12.95;5.93;;;;;;;5.17;100.00;100247.09;5060235;28;20095;-73
2021/11/04 08:30:16;;;;;;;12.65;6.70;;;;;;;5.27;100.00;100250.75;5040757;28;20068;-74
2021/11/04 08:32:45;;;;;;;11.45;5.93;;;;;;;5.40;100.00;100245.84;5039162;28;20039;-73
2021/11/04 08:35:10;;;;;;;10.38;6.07;;;;;;;5.50;100.00;100256.94;5041382;28;20035;-73
2021/11/04 08:37:36;;;;;;;14.80;6.07;;;;;;;5.62;100.00;100254.78;5027479;28;20041;-73
2021/11/04 08:40:03;;;;;;;10.65;5.55;;;;;;;5.75;100.00;100247.97;5039003;28;20036;-73
2021/11/04 08:42:29;;;;;;;9.75;5.20;;;;;;;5.87;100.00;100259.59;5064488;28;20032;-73
2021/11/04 08:44:55;;;;;;;10.57;6.22;;;;;;;5.99;100.00;100256.63;5056709;28;20035;-74
2021/11/04 08:47:21;;;;;;;13.85;6.05;;;;;;;6.09;100.00;100262.19;5060980;28;20025;-73
2021/11/04 08:49:46;;;;;;;12.27;5.60;;;;;;;6.19;100.00;100258.66;5039882;28;20045;-74
2021/11/04 08:52:13;;;;;;;10.18;5.93;;;;;;;6.30;100.00;100263.09;5040053;28;20044;-73
2021/11/04 08:54:40;;;;;;;15.77;5.10;;;;;;;6.44;100.00;100269.75;5061991;28;20029;-69
2021/11/04 08:57:07;;;;;;;13.90;5.63;;;;;;;6.54;100.00;100266.16;5059873;28;20110;-73
2021/11/04 08:59:33;;;;;;;12.23;6.47;;;;;;;6.66;100.00;100280.56;5036431;28;20025;-72
2021/11/04 09:01:59;;;;;;;13.48;5.57;;;;;;;6.74;100.00;100286.63;5054823;28;20059;-72
2021/11/04 09:04:27;;;;;;;13.48;5.88;;;;;;;6.81;100.00;100289.97;5056307;28;20033;-73
2021/11/04 09:06:54;;;;;;;7.93;5.28;;;;;;;6.92;100.00;100289.69;5042242;28;20024;-71
2021/11/04 09:09:19;;;;;;;15.77;5.95;;;;;;;7.04;100.00;100286.66;5055082;28;20067;-70
2021/11/04 09:11:45;;;;;;;14.15;5.50;;;;;;;7.10;100.00;100296.63;5042344;28;20108;-75
2021/11/04 09:14:10;;;;;;;11.30;5.43;;;;;;;7.13;100.00;100307.09;5045586;28;20071;-71
2021/11/04 09:16:36;;;;;;;18.05;6.03;;;;;;;7.20;100.00;100306.81;5054553;28;20036;-73
2021/11/04 09:19:02;;;;;;;10.07;5.20;;;;;;;7.27;100.00;100301.84;5055492;28;20020;-72
2021/11/04 09:21:28;;;;;;;13.68;5.75;;;;;;;7.33;100.00;100305.44;5038654;28;20021;-72
2021/11/04 09:23:55;;;;;;;12.93;5.07;;;;;;;7.42;100.00;100308.47;5052958;28;20087;-72
2021/11/04 09:26:21;;;;;;;11.85;4.45;;;;;;;7.51;100.00;100309.56;5059207;28;20041;-72
2021/11/04 09:28:46;;;;;;;9.50;4.20;;;;;;;7.58;100.00;100324.75;5049990;28;20564;-74
2021/11/04 09:31:12;;;;;;;13.10;4.60;;;;;;;7.67;100.00;100318.66;5056569;28;20025;-75
2021/11/04 09:33:37;;;;;;;14.13;4.75;;;;;;;7.75;100.00;100323.63;5036267;28;20113;-73
2021/11/04 09:36:03;;;;;;;10.73;4.18;;;;;;;7.86;100.00;100313.38;5071939;28;20052;-72
2021/11/04 09:38:28;;;;;;;10.35;4.57;;;;;;;7.94;100.00;100310.84;5066557;28;20033;-72
2021/11/04 09:40:54;;;;;;;7.93;4.22;;;;;;;8.03;100.00;100322.97;5059981;28;20029;-72
2021/11/04 09:43:20;;;;;;;15.63;4.05;;;;;;;8.13;100.00;100319.31;5059723;28;20098;-73
2021/11/04 09:45:45;;;;;;;14.57;5.18;;;;;;;8.18;100.00;100333.16;5049702;28;20030;-72
2021/11/04 09:48:11;;;;;;;13.63;4.78;;;;;;;8.27;100.00;100328.69;5059210;28;20032;-71
2021/11/04 09:50:36;;;;;;;10.30;4.20;;;;;;;8.31;100.00;100341.97;5056990;28;20037;-72
2021/11/04 09:53:03;;;;;;;10.70;4.07;;;;;;;8.38;100.00;100340.53;5043135;28;20031;-71
2021/11/04 09:55:28;;;;;;;11.32;3.88;;;;;;;8.44;100.00;100345.00;5042121;28;20520;-73
2021/11/04 09:57:56;;;;;;;7.93;3.03;;;;;;;8.53;100.00;100345.22;5062652;28;20036;-72
2021/11/04 10:00:22;;;;;;;9.20;3.10;;;;;;;8.54;100.00;100352.41;5049970;28;20087;-73
2021/11/04 10:03:20;;;;;;;15.48;3.97;;;;;;;8.60;100.00;100355.97;5035857;28;20468;-72
2021/11/04 10:05:50;;;;;;;8.95;3.97;;;;;;;8.57;100.00;100357.34;5030900;28;20041;-73
2021/11/04 10:08:42;;;;;;;11.20;4.25;;;;;;;8.62;100.00;100353.75;5056756;28;20039;-72
2021/11/04 10:11:12;;;;;;;9.38;3.00;;;;;;;8.70;100.00;100358.69;5044807;28;20049;-73
2021/11/04 10:13:38;;;;;;;11.95;3.10;;;;;;;8.79;100.00;100364.47;5072420;28;20037;-73
2021/11/04 10:16:03;;;;;;;8.40;2.92;;;;;;;8.79;100.00;100370.81;5024900;28;20036;-71
2021/11/04 10:18:36;;;;;;;12.40;2.65;;;;;;;8.87;100.00;100372.16;5062922;28;20037;-73
2021/11/04 10:21:03;;;;;;;8.93;2.60;;;;;;;8.94;100.00;100373.50;5053987;28;20597;-73
2021/11/04 10:23:45;;;;;;;9.25;2.70;;;;;;;8.91;100.00;100362.16;5039384;28;20104;-74
2021/11/04 10:26:16;;;;;;;9.60;2.47;;;;;;;8.90;100.00;100372.41;5058164;28;20068;-72
2021/11/04 10:28:48;;;;;;;5.28;2.80;;;;;;;8.97;100.00;100366.56;5057838;28;20028;-73
2021/11/04 10:31:19;;;;;;;8.82;3.28;;;;;;;8.96;100.00;100375.97;5060231;28;20033;-73
2021/11/04 10:33:46;;;;;;;6.90;2.78;;;;;;;8.98;100.00;100379.28;5056500;28;20028;-73
2021/11/04 10:36:19;;;;;;;5.93;2.38;;;;;;;9.07;100.00;100379.50;5061172;28;20029;-73
2021/11/04 10:38:52;;;;;;;10.02;2.67;;;;;;;9.09;100.00;100386.41;5061942;28;20040;-73
2021/11/04 10:41:24;;;;;;;;;;;;;;;9.20;100.00;100380.81;5056534;28;20032;-73
2021/11/04 10:43:59;;;;;;;4.40;1.73;;;;;;;9.26;100.00;100385.22;5068164;28;19967;-73
2021/11/04 10:46:24;;;;;;;8.35;2.50;;;;;;;9.34;100.00;100392.91;5058687;28;20057;-73
2021/11/04 10:49:03;;;;;;;9.25;2.10;;;;;;;9.33;99.86;100391.22;5056249;28;20076;-73
2021/11/04 10:51:33;;;;;;;5.88;2.20;;;;;;;9.45;100.00;100388.13;5058942;28;20040;-73
2021/11/04 10:54:01;;;;;;;4.90;2.00;;;;;;;9.39;98.97;100401.19;5072285;28;20028;-73
2021/11/04 10:56:27;;;;;;;6.28;1.95;;;;;;;9.52;100.00;100405.22;5046608;28;20512;-73
2021/11/04 10:59:11;;;;;;;6.57;2.00;;;;;;;9.58;100.00;100409.59;5058493;28;20033;-73
2021/11/04 11:01:42;;;;;;;6.43;2.10;;;;;;;9.63;100.00;100401.25;5061406;28;20051;-73
2021/11/04 11:04:21;;;;;;;6.55;1.75;;;;;;;9.70;100.00;100406.47;5047479;28;20872;-73
2021/11/04 11:06:50;;;;;;;7.63;1.80;;;;;;;9.76;99.42;100406.13;5065941;28;20032;-73
2021/11/04 11:09:20;;;;;;;7.03;2.10;;;;;;;9.72;97.46;100415.31;5081294;28;20035;-73
2021/11/04 11:11:47;;;;;;;8.60;2.13;;;;;;;9.72;96.14;100399.53;5071918;28;20370;-73
2021/11/04 11:14:16;;;;;;;4.50;1.88;;;;;;;9.81;95.69;100413.59;5040208;28;20107;-74
2021/11/04 11:16:52;;;;;;;6.00;1.95;;;;;;;9.87;98.37;100415.19;5063085;28;20481;-73
2021/11/04 11:19:28;;;;;;;5.93;1.63;;;;;;;9.93;95.33;100415.97;5042900;28;20086;-73
2021/11/04 11:21:54;;;;;;;8.00;1.70;;;;;;;9.98;94.44;100419.53;5061604;28;20033;-73
2021/11/04 11:24:32;;;;;;;3.45;1.38;;;;;;;10.04;94.04;100423.91;5060856;28;20040;-73